»·PEaware :: N123SX KBOS-CYHZ

N123SX :: KBOS-CYHZ

FLIGHT INFORMATION

Flight Status: Arrived
Operator: Privately registered:
United States
More flights under this callsign
Pilot: Shawn G. (7208)
Aircraft: ECLIPSE 500
(EA50)
More flights by this aircraft type
Origin: KBOS Logan Intl
United States
Destination: CYHZ Halifax Intl
Canada
More flights between these airports :: More routes between these airports
Route: LBSTA4 LBSTA TUSKY PEGGY2
File this flight plan on PilotEdge
Remarks:
Altitude:
(Current/Filed)
31,000ft
Speed:
(Current/Filed)
340kts
Departed: 15-Jul-17 10:43 PM
Arrived: 16-Jul-17 12:05 AM
Distance/Time
Traveled:
359nm/1:22
Distance/Time
To Go:
Arrived

Flight Plot

Page will automatically refresh every two minutes.

Flight plan parsing failed; only flown route is shown


Map Options




Map Legend


Flown Route
Filed Route
Departure Airport
Arrival Airport
Navaid (VOR, NDB)
Fix

Horizontal Profiles

Position Reports

Time Latitude Longitude Heading Altitude Ground
Speed
15-Jul-17 21:27 42.373677 -71.020036 314 9ft 0kts
15-Jul-17 21:28 42.373677 -71.020036 314 9ft 0kts
15-Jul-17 21:29 42.373677 -71.020036 314 9ft 0kts
15-Jul-17 21:30 42.373677 -71.020036 314 9ft 0kts
15-Jul-17 21:31 42.373677 -71.020036 314 9ft 0kts
15-Jul-17 21:32 42.373677 -71.020036 314 9ft 0kts
15-Jul-17 21:33 42.373677 -71.020036 314 9ft 0kts
15-Jul-17 21:34 42.373677 -71.020036 314 9ft 0kts
15-Jul-17 21:35 42.373677 -71.020036 314 9ft 0kts
15-Jul-17 21:36 42.373677 -71.020036 314 9ft 0kts
15-Jul-17 21:37 42.373677 -71.020036 314 9ft 0kts
15-Jul-17 21:38 42.373677 -71.020036 314 9ft 0kts
15-Jul-17 21:39 42.373677 -71.020036 314 9ft 0kts
15-Jul-17 21:40 42.373677 -71.020036 314 9ft 0kts
15-Jul-17 21:41 42.373677 -71.020036 314 9ft 0kts
15-Jul-17 21:42 42.373677 -71.020036 314 9ft 0kts
15-Jul-17 21:43 42.373677 -71.020036 314 9ft 0kts
15-Jul-17 21:44 42.373677 -71.020036 314 9ft 0kts
15-Jul-17 21:45 42.373677 -71.020036 314 9ft 0kts
15-Jul-17 21:46 42.373677 -71.020036 314 9ft 0kts
15-Jul-17 21:47 42.373677 -71.020036 314 9ft 0kts
15-Jul-17 21:48 42.373677 -71.020036 314 9ft 0kts
15-Jul-17 21:49 42.373677 -71.020036 314 9ft 0kts
15-Jul-17 21:50 42.373677 -71.020036 314 9ft 0kts
15-Jul-17 21:51 42.373677 -71.020036 314 9ft 0kts
15-Jul-17 21:52 42.373677 -71.020036 314 9ft 0kts
15-Jul-17 21:53 42.373677 -71.020036 314 9ft 0kts
15-Jul-17 21:54 42.373677 -71.020036 314 9ft 0kts
15-Jul-17 21:55 42.373677 -71.020036 314 9ft 0kts
15-Jul-17 21:56 42.373677 -71.020036 314 9ft 0kts
15-Jul-17 21:57 42.373677 -71.020036 314 9ft 0kts
15-Jul-17 21:58 42.373677 -71.020036 314 9ft 0kts
15-Jul-17 21:59 42.373677 -71.020036 314 9ft 0kts
15-Jul-17 22:00 42.373677 -71.020036 314 9ft 0kts
15-Jul-17 22:01 42.373677 -71.020036 314 9ft 0kts
15-Jul-17 22:02 42.373677 -71.020036 314 9ft 0kts
15-Jul-17 22:03 42.373677 -71.020036 314 9ft 0kts
15-Jul-17 22:04 42.373677 -71.020036 314 9ft 0kts
15-Jul-17 22:05 42.373677 -71.020036 314 9ft 0kts
15-Jul-17 22:06 42.373677 -71.020036 314 9ft 0kts
15-Jul-17 22:07 42.373677 -71.020036 314 9ft 0kts
15-Jul-17 22:08 42.373677 -71.020036 314 9ft 0kts
15-Jul-17 22:09 42.373677 -71.020036 314 9ft 0kts
15-Jul-17 22:10 42.373677 -71.020036 314 9ft 0kts
15-Jul-17 22:11 42.373677 -71.020036 314 9ft 0kts
15-Jul-17 22:12 42.373677 -71.020036 314 9ft 0kts
15-Jul-17 22:13 42.373677 -71.020036 314 9ft 0kts
15-Jul-17 22:14 42.373677 -71.020036 314 9ft 0kts
15-Jul-17 22:15 42.373677 -71.020036 314 9ft 0kts
15-Jul-17 22:16 42.373677 -71.020036 314 9ft 0kts
15-Jul-17 22:17 42.373677 -71.020036 314 9ft 0kts
15-Jul-17 22:18 42.373677 -71.020036 314 9ft 0kts
15-Jul-17 22:19 42.373677 -71.020036 314 9ft 0kts
15-Jul-17 22:20 42.373677 -71.020036 314 9ft 0kts
15-Jul-17 22:21 42.373677 -71.020036 314 9ft 0kts
15-Jul-17 22:22 42.373677 -71.020036 314 9ft 0kts
15-Jul-17 22:23 42.373677 -71.020036 314 9ft 0kts
15-Jul-17 22:24 42.373677 -71.020036 314 9ft 0kts
15-Jul-17 22:25 42.373677 -71.020036 314 9ft 0kts
15-Jul-17 22:26 42.373677 -71.020036 314 9ft 0kts
15-Jul-17 22:27 42.373677 -71.020036 314 9ft 0kts
15-Jul-17 22:28 42.373677 -71.020036 314 9ft 0kts
15-Jul-17 22:29 42.373677 -71.020036 314 9ft 0kts
15-Jul-17 22:30 42.373677 -71.020036 314 9ft 0kts
15-Jul-17 22:31 42.373677 -71.020036 314 9ft 0kts
15-Jul-17 22:32 42.373677 -71.020036 314 9ft 0kts
15-Jul-17 22:33 42.373677 -71.020036 314 9ft 0kts
15-Jul-17 22:34 42.373859 -71.020275 316 9ft 0kts
15-Jul-17 22:35 42.374043 -71.020503 318 9ft 3kts
15-Jul-17 22:36 42.374285 -71.020192 90 9ft 6kts
15-Jul-17 22:37 42.373070 -71.018411 140 9ft 9kts
15-Jul-17 22:38 42.369740 -71.013937 130 9ft 16kts
15-Jul-17 22:39 42.369950 -71.011027 25 9ft 13kts
15-Jul-17 22:40 42.374276 -71.008416 18 6ft 14kts
15-Jul-17 22:41 42.376101 -71.007507 25 6ft 3kts
15-Jul-17 22:42 42.378154 -71.006545 23 6ft 3kts
15-Jul-17 22:43 42.378393 -71.005868 100 6ft 2kts
15-Jul-17 22:44 42.378319 -71.005579 110 6ft 0kts
15-Jul-17 22:45 42.377805 -71.004772 178 6ft 4kts
15-Jul-17 22:46 42.361869 -71.012701 204 205ft 137kts
15-Jul-17 22:47 42.321636 -71.038080 207 2786ft 161kts
15-Jul-17 22:48 42.297631 -71.005995 78 5373ft 181kts
15-Jul-17 22:49 42.308659 -70.939327 75 8063ft 187kts
15-Jul-17 22:50 42.321187 -70.870056 75 10352ft 203kts
15-Jul-17 22:51 42.335227 -70.791922 76 12522ft 219kts
15-Jul-17 22:52 42.375767 -70.740553 15 14573ft 222kts
15-Jul-17 22:53 42.435496 -70.714714 13 16484ft 230kts
15-Jul-17 22:54 42.497856 -70.694483 8 17677ft 234kts
15-Jul-17 22:55 42.561699 -70.675219 8 18696ft 238kts
15-Jul-17 22:56 42.626908 -70.655577 7 19640ft 242kts
15-Jul-17 22:57 42.693233 -70.637056 4 20508ft 245kts
15-Jul-17 22:58 42.760918 -70.622061 3 21316ft 249kts
15-Jul-17 22:59 42.810727 -70.565385 70 22021ft 270kts
15-Jul-17 23:00 42.833512 -70.466975 71 22699ft 275kts
15-Jul-17 23:01 42.856505 -70.366391 71 23779ft 281kts
15-Jul-17 23:02 42.879833 -70.263798 72 24868ft 288kts
15-Jul-17 23:03 42.903661 -70.158312 72 25876ft 294kts
15-Jul-17 23:04 42.927818 -70.050921 72 26812ft 300kts
15-Jul-17 23:05 42.953427 -69.936543 72 27004ft 334kts
15-Jul-17 23:06 42.981591 -69.810012 72 27009ft 363kts
15-Jul-17 23:07 43.011762 -69.673659 72 27011ft 385kts
15-Jul-17 23:08 43.040504 -69.542946 72 29683ft 298kts
15-Jul-17 23:09 43.064437 -69.433486 72 30575ft 306kts
15-Jul-17 23:10 43.088626 -69.322299 73 31013ft 314kts
15-Jul-17 23:11 43.114512 -69.202545 73 31005ft 342kts
15-Jul-17 23:12 43.142217 -69.073731 73 31001ft 362kts
15-Jul-17 23:13 43.171022 -68.938996 73 31001ft 375kts
15-Jul-17 23:14 43.200422 -68.800433 73 31001ft 384kts
15-Jul-17 23:15 43.230408 -68.658189 73 31002ft 391kts
15-Jul-17 23:16 43.260472 -68.514613 73 31002ft 394kts
15-Jul-17 23:17 43.290549 -68.369979 73 31003ft 394kts
15-Jul-17 23:18 43.320051 -68.227102 74 30997ft 394kts
15-Jul-17 23:19 43.349752 -68.082224 74 30998ft 394kts
15-Jul-17 23:20 43.379306 -67.937029 74 30999ft 394kts
15-Jul-17 23:21 43.408590 -67.792148 74 31001ft 394kts
15-Jul-17 23:22 43.437710 -67.647013 74 31002ft 394kts
15-Jul-17 23:23 43.466659 -67.501650 74 30960ft 394kts
15-Jul-17 23:24 43.495383 -67.356377 74 30962ft 394kts
15-Jul-17 23:25 43.523947 -67.210869 75 30960ft 394kts
15-Jul-17 23:26 43.552391 -67.064996 75 30962ft 395kts
15-Jul-17 23:27 43.589447 -66.922789 65 30964ft 396kts
15-Jul-17 23:28 43.633517 -66.783486 65 30965ft 396kts
15-Jul-17 23:29 43.677364 -66.644086 65 30966ft 396kts
15-Jul-17 23:30 43.721010 -66.504584 65 30967ft 396kts
15-Jul-17 23:31 43.764446 -66.365011 65 30968ft 396kts
15-Jul-17 23:32 43.807803 -66.224974 66 30962ft 396kts
15-Jul-17 23:33 43.850895 -66.084952 66 30963ft 396kts
15-Jul-17 23:34 43.893814 -65.944790 66 30964ft 396kts
15-Jul-17 23:35 43.936731 -65.803859 66 30966ft 396kts
15-Jul-17 23:36 43.979291 -65.663341 66 30967ft 396kts
15-Jul-17 23:37 44.023270 -65.517312 66 29729ft 428kts
15-Jul-17 23:38 44.068818 -65.365207 66 28166ft 420kts
15-Jul-17 23:39 44.112641 -65.217971 67 26564ft 408kts
15-Jul-17 23:40 44.154997 -65.074854 67 24953ft 390kts
15-Jul-17 23:41 44.194733 -64.939888 67 23259ft 372kts
15-Jul-17 23:42 44.233213 -64.808510 67 21387ft 360kts
15-Jul-17 23:43 44.270012 -64.682124 67 19391ft 346kts
15-Jul-17 23:44 44.305332 -64.560254 67 17397ft 333kts
15-Jul-17 23:45 44.339148 -64.443017 67 15406ft 320kts
15-Jul-17 23:46 44.371515 -64.330310 68 13415ft 308kts
15-Jul-17 23:47 44.402601 -64.221545 68 11405ft 296kts
15-Jul-17 23:48 44.438163 -64.120521 58 10009ft 287kts
15-Jul-17 23:49 44.479746 -64.026088 58 8912ft 273kts
15-Jul-17 23:50 44.516938 -63.941437 59 7155ft 241kts
15-Jul-17 23:51 44.551570 -63.862318 59 6300ft 237kts
15-Jul-17 23:52 44.585849 -63.783842 59 5803ft 235kts
15-Jul-17 23:53 44.619920 -63.705659 59 5304ft 233kts
15-Jul-17 23:54 44.653586 -63.628198 59 5001ft 231kts
15-Jul-17 23:55 44.691515 -63.556504 35 5004ft 233kts
15-Jul-17 23:56 44.744406 -63.503892 35 5000ft 233kts
15-Jul-17 23:57 44.797324 -63.451533 34 5000ft 233kts
15-Jul-17 23:58 44.850415 -63.398986 34 5000ft 233kts
15-Jul-17 23:59 44.903215 -63.346636 35 4947ft 234kts
16-Jul-17 00:00 44.953835 -63.296377 35 4125ft 202kts
16-Jul-17 00:01 44.999623 -63.284302 304 3458ft 184kts
16-Jul-17 00:02 45.028614 -63.341727 304 3001ft 179kts
16-Jul-17 00:03 45.011087 -63.389617 206 2999ft 162kts
16-Jul-17 00:04 44.972330 -63.421810 215 2329ft 162kts
16-Jul-17 00:05 44.938216 -63.455746 214 1570ft 128kts
16-Jul-17 00:06 44.912883 -63.480767 214 1045ft 108kts
16-Jul-17 00:07 44.888342 -63.505010 218 533ft 107kts
16-Jul-17 00:08 44.875198 -63.520585 292 480ft 20kts
16-Jul-17 00:09 44.877643 -63.519561 35 480ft 10kts
16-Jul-17 00:10 44.880797 -63.516531 32 480ft 16kts
16-Jul-17 00:11 44.883656 -63.514684 126 480ft 4kts
16-Jul-17 00:12 44.883634 -63.514648 131 480ft 0kts
16-Jul-17 00:13 44.883634 -63.514648 131 480ft 0kts
16-Jul-17 00:14 44.883634 -63.514648 131 480ft 0kts
16-Jul-17 00:15 44.883634 -63.514648 131 480ft 0kts
16-Jul-17 00:16 44.883634 -63.514648 131 480ft 0kts
16-Jul-17 00:17 44.883634 -63.514648 131 480ft 0kts
16-Jul-17 00:18 44.883634 -63.514648 131 480ft 0kts
16-Jul-17 00:19 44.883634 -63.514648 131 480ft 0kts
16-Jul-17 00:20 44.883634 -63.514648 131 480ft 0kts
16-Jul-17 00:21 44.883634 -63.514648 131 480ft 0kts
16-Jul-17 00:22 44.883634 -63.514648 131 480ft 0kts
16-Jul-17 00:23 44.883634 -63.514648 131 480ft 0kts

Navigation Log

Ident Type
Flight plan parsing failed, navigation log unavailable